Ship Status Report: callsign YJRS2

sailwx.info

Track history (hours):
 
Tides and Currents Weather Stations Pressure Air Temp Water Temp Dewpoint Dewpoint Depression Visibility Wind Speed Wind Dir Waves Ship Positions

Callsign YJRS2 (name unknown)

Last reported at 2018-Apr-01 01:31 UTC. Time now 2018-Apr-22 08:41 UTC.
Position N 17°40' W 063°15'.
Warning: this ship's position is 21 days out of date.

Length 28 m.

Type: Diving. MMSI: 577334000.

Date/timePositionNaut miles runAvg speedWind from/ knotsBaromVisibWave heightAir tempDewpointWater temp
2018-Apr-01 01:31N 17°40' W 063°15'5 9.5
2018-Apr-01 01:02N 17°44' W 063°13'0 9.4
2018-Apr-01 01:00N 17°44' W 063°13'5 9.5
2018-Apr-01 00:31N 17°48' W 063°11'5 9.4
2018-Apr-01 00:00N 17°53' W 063°08'5 9.7
2018-Mar-31 23:30N 17°57' W 063°06'4 0.1
2018-Mar-30 16:52N 17°60' W 063°04'4 9.6
2018-Mar-30 16:30N 17°57' W 063°05'5 9.4
2018-Mar-30 16:00N 17°52' W 063°07'16 6.5
2018-Mar-30 13:34N 17°39' W 063°15'0 0.1
2018-Mar-30 13:28N 17°39' W 063°15'0 0.0
2018-Mar-30 12:42N 17°39' W 063°15'  
Track history (hours):
 
Tides and Currents Weather Stations Pressure Air Temp Water Temp Dewpoint Dewpoint Depression Visibility Wind Speed Wind Dir Waves Ship Positions

Callsign YJRS2 (name unknown)

Last reported at 2018-Apr-01 01:31 UTC. Time now 2018-Apr-22 08:41 UTC.
Position N 17°40' W 063°15'.
Warning: this ship's position is 21 days out of date.

Length 28 m.

Type: Diving. MMSI: 577334000.

Date/timePositionNaut miles runAvg speedWind from/ knotsBaromVisibWave heightAir tempDewpointWater temp
2018-Apr-01 01:31N 17°40' W 063°15'5 9.5
2018-Apr-01 01:02N 17°44' W 063°13'0 9.4
2018-Apr-01 01:00N 17°44' W 063°13'5 9.5
2018-Apr-01 00:31N 17°48' W 063°11'5 9.4
2018-Apr-01 00:00N 17°53' W 063°08'5 9.7
2018-Mar-31 23:30N 17°57' W 063°06'4 0.1
2018-Mar-30 16:52N 17°60' W 063°04'4 9.6
2018-Mar-30 16:30N 17°57' W 063°05'5 9.4
2018-Mar-30 16:00N 17°52' W 063°07'16 6.5
2018-Mar-30 13:34N 17°39' W 063°15'0 0.1
2018-Mar-30 13:28N 17°39' W 063°15'0 0.0
2018-Mar-30 12:42N 17°39' W 063°15'  

Dump ship's entire track history